Time;durP1;ratioP1;P1;durP2;ratioP2;P2;SDS_P1;SDS_P2;PMS_P1;PMS_P2;Temp;Humidity;BMP_temperature;BMP_pressure;BME280_temperature;BME280_humidity;BME280_pressure;Samples;Min_cycle;Max_cycle;Signal;HPM_P1;HPM_P2
2024/02/09 00:05:49;;;;;;;139.80;46.10;;;;;;;3.63;77.31;98922.39;677226;1263;139323;-79
2024/02/09 00:20:53;;;;;;;118.40;38.50;;;;;;;3.64;77.31;98922.30;675829;1262;140233;-79
2024/02/09 00:35:56;;;;;;;105.10;36.50;;;;;;;3.56;77.25;98913.43;680682;1263;139318;-79
2024/02/09 00:51:00;;;;;;;240.60;62.00;;;;;;;3.46;76.84;98917.64;679548;1262;139739;-80
2024/02/09 01:06:06;;;;;;;67.40;22.00;;;;;;;3.42;77.03;98919.22;680527;1260;139218;-79
2024/02/09 03:08:56;;;;;;;52.90;24.20;;;;;;;2.95;77.35;98903.56;679126;1263;140024;-79
2024/02/09 03:24:01;;;;;;;71.40;29.90;;;;;;;2.93;77.01;98906.98;677665;1265;139863;-79
2024/02/09 03:39:08;;;;;;;77.60;29.60;;;;;;;2.82;77.29;98902.45;676802;1273;139763;-79
2024/02/09 03:54:13;;;;;;;47.10;20.30;;;;;;;2.69;78.15;98888.63;680662;1264;139887;-79
2024/02/09 04:09:17;;;;;;;58.20;24.20;;;;;;;2.72;78.81;98894.24;679697;1266;140565;-78
2024/02/09 04:24:41;;;;;;;404.90;101.90;;;;;;;2.63;79.49;98882.51;678535;1264;139940;-79
2024/02/09 04:39:44;;;;;;;63.50;26.60;;;;;;;2.65;79.80;98881.30;677918;1266;139736;-79
2024/02/09 04:54:48;;;;;;;54.10;24.40;;;;;;;2.72;79.99;98873.76;678184;1267;140222;-78
2024/02/09 05:09:53;;;;;;;57.10;25.30;;;;;;;2.80;79.58;98870.30;679299;1277;139210;-80
2024/02/09 05:24:57;;;;;;;51.50;22.30;;;;;;;2.79;79.74;98864.33;680431;1264;139005;-78
2024/02/09 05:40:00;;;;;;;59.20;25.80;;;;;;;2.74;79.72;98851.66;679122;1273;142531;-78
2024/02/09 05:55:08;;;;;;;80.50;35.20;;;;;;;2.60;79.69;98838.91;678214;1260;140815;-77
2024/02/09 06:10:13;;;;;;;175.10;63.30;;;;;;;2.61;79.88;98835.70;679223;1264;139698;-78
2024/02/09 06:25:17;;;;;;;64.70;29.10;;;;;;;2.50;79.74;98853.48;679858;1261;140642;-78
2024/02/09 06:40:20;;;;;;;157.20;52.30;;;;;;;2.49;79.80;98872.02;678682;1264;139809;-78
2024/02/09 06:55:24;;;;;;;110.00;43.40;;;;;;;2.58;79.86;98882.39;679247;1261;139568;-77
2024/02/09 07:10:29;;;;;;;148.30;79.70;;;;;;;2.72;79.71;98880.80;679723;1262;184929;-78
2024/02/09 07:25:33;;;;;;;91.20;34.30;;;;;;;2.89;79.72;98867.05;679296;1261;140490;-78
2024/02/09 07:40:38;;;;;;;90.10;38.20;;;;;;;3.08;79.88;98844.13;681165;1264;139404;-78
2024/02/09 07:55:42;;;;;;;99.70;35.00;;;;;;;3.36;79.93;98835.29;679349;1259;138951;-78
2024/02/09 08:10:46;;;;;;;113.20;40.60;;;;;;;3.47;79.48;98832.89;681278;1258;139393;-78
2024/02/09 08:25:51;;;;;;;99.90;40.50;;;;;;;3.83;79.55;98850.56;680360;1259;141995;-77
2024/02/09 08:40:58;;;;;;;64.40;26.80;;;;;;;4.04;79.24;98862.10;681500;1261;138767;-77
2024/02/09 08:56:04;;;;;;;84.50;34.70;;;;;;;4.20;78.76;98842.80;678048;1263;139990;-78
2024/02/09 09:11:08;;;;;;;76.80;29.50;;;;;;;4.12;79.32;98848.31;678961;1260;139300;-78
2024/02/09 09:26:12;;;;;;;100.10;34.00;;;;;;;4.27;79.28;98860.20;679143;1260;139324;-79
2024/02/09 09:41:32;;;;;;;68.40;31.10;;;;;;;4.43;78.47;98857.46;679608;1261;139543;-79
2024/02/09 09:56:39;;;;;;;59.80;27.30;;;;;;;4.65;77.71;98843.67;679090;1261;140387;-79
2024/02/09 10:11:45;;;;;;;260.90;86.20;;;;;;;4.57;77.66;98826.63;681817;1260;141055;-80
2024/02/09 10:26:49;;;;;;;668.30;201.50;;;;;;;4.63;77.40;98814.57;680762;1264;140482;-80
2024/02/09 10:42:02;;;;;;;170.50;53.70;;;;;;;4.56;77.37;98790.54;680038;1264;139772;-80
2024/02/09 10:57:06;;;;;;;117.60;43.00;;;;;;;4.15;79.12;98771.20;679119;1264;140110;-79
2024/02/09 11:12:13;;;;;;;75.60;35.50;;;;;;;3.98;81.30;98756.94;679370;1261;140256;-80
2024/02/09 11:27:20;;;;;;;106.50;38.50;;;;;;;3.87;82.64;98742.46;678961;1259;139973;-80
2024/02/09 11:42:24;;;;;;;205.30;61.30;;;;;;;3.78;83.16;98732.15;679647;1262;139927;-80
2024/02/09 11:57:30;;;;;;;;;;;;;;;3.68;83.89;98726.27;679713;1264;140168;-80
2024/02/09 12:12:35;;;;;;;80.80;31.60;;;;;;;3.79;83.23;98716.16;678137;1263;125003;-81
2024/02/09 12:27:39;;;;;;;117.10;43.60;;;;;;;3.75;83.84;98692.73;678085;1261;139703;-80
2024/02/09 12:42:43;;;;;;;127.80;39.10;;;;;;;3.78;84.12;98674.05;680530;1263;139433;-80
2024/02/09 12:57:48;;;;;;;136.60;37.00;;;;;;;3.63;85.06;98667.69;678033;1259;140342;-79
2024/02/09 13:12:51;;;;;;;78.60;23.50;;;;;;;3.39;86.51;98643.57;678285;1263;139791;-80
2024/02/09 13:27:57;;;;;;;79.60;31.50;;;;;;;3.25;87.46;98626.09;673468;1263;139875;-80
2024/02/09 13:43:01;;;;;;;65.30;24.60;;;;;;;3.25;87.62;98608.45;675461;1263;138682;-81
2024/02/09 13:58:06;;;;;;;100.90;28.90;;;;;;;3.33;87.71;98596.59;677974;1263;139488;-80
2024/02/09 14:13:09;;;;;;;75.80;34.00;;;;;;;3.17;87.93;98583.89;675859;1260;139092;-81
2024/02/09 14:28:14;;;;;;;106.50;41.30;;;;;;;3.12;88.46;98570.88;675546;1262;139677;-81
2024/02/09 14:43:19;;;;;;;64.70;24.10;;;;;;;3.11;88.83;98562.49;677551;1263;138753;-81
2024/02/09 14:58:24;;;;;;;208.30;67.50;;;;;;;3.07;89.33;98549.72;677149;1264;139179;-79
2024/02/09 15:13:30;;;;;;;248.70;69.60;;;;;;;3.12;89.24;98532.35;678886;1275;139006;-81
2024/02/09 15:28:34;;;;;;;188.40;73.10;;;;;;;3.08;89.54;98519.75;679064;1264;139455;-81
2024/02/09 15:43:38;;;;;;;124.70;44.50;;;;;;;3.03;89.54;98519.83;678117;1264;139248;-80
2024/02/09 15:58:43;;;;;;;93.50;36.50;;;;;;;2.99;89.78;98516.30;680464;1260;139879;-80
2024/02/09 16:13:47;;;;;;;97.90;36.90;;;;;;;2.94;89.92;98515.05;678452;1265;139868;-79
2024/02/09 16:28:51;;;;;;;132.20;45.40;;;;;;;2.93;90.47;98508.02;678404;1261;139574;-79
2024/02/09 16:43:55;;;;;;;251.60;72.50;;;;;;;2.90;90.47;98496.40;676610;1264;139114;-80
2024/02/09 16:58:59;;;;;;;224.20;56.60;;;;;;;2.96;90.40;98508.64;676952;1264;138749;-80
2024/02/09 17:14:04;;;;;;;125.70;41.20;;;;;;;3.01;89.86;98516.55;676840;1264;140935;-80
2024/02/09 17:29:09;;;;;;;149.20;54.60;;;;;;;3.05;90.01;98527.02;676314;1264;139551;-79
2024/02/09 17:44:20;;;;;;;147.10;43.90;;;;;;;3.04;89.71;98516.59;679769;1264;140541;-79
2024/02/09 17:59:24;;;;;;;89.90;36.20;;;;;;;3.19;89.88;98507.06;676997;1270;139766;-80
2024/02/09 18:14:29;;;;;;;96.70;30.10;;;;;;;3.39;88.86;98500.48;674954;1263;141536;-79
2024/02/09 18:29:33;;;;;;;128.20;34.20;;;;;;;3.34;88.96;98471.89;674931;1265;139183;-80
2024/02/09 18:44:37;;;;;;;110.10;34.10;;;;;;;3.41;88.70;98475.42;678220;1265;139533;-81
2024/02/09 18:59:41;;;;;;;111.70;35.70;;;;;;;3.29;89.85;98462.98;680439;1263;139024;-80
2024/02/09 19:14:48;;;;;;;65.90;20.50;;;;;;;3.22;90.71;98457.88;680664;1266;178215;-79
2024/02/09 19:29:54;;;;;;;43.70;17.40;;;;;;;3.36;90.41;98451.35;678039;1266;139776;-78
2024/02/09 19:45:00;;;;;;;44.80;18.00;;;;;;;3.40;90.41;98439.92;681222;1265;139405;-79
2024/02/09 20:00:11;;;;;;;51.60;21.00;;;;;;;3.46;90.60;98429.41;679934;1276;140044;-79
2024/02/09 20:15:18;;;;;;;34.70;16.90;;;;;;;3.43;90.50;98437.93;679389;1264;139692;-80
2024/02/09 20:30:25;;;;;;;120.00;35.70;;;;;;;3.47;90.46;98451.77;680473;1276;139460;-80
2024/02/09 20:45:35;;;;;;;93.90;31.70;;;;;;;3.46;90.88;98439.76;678244;1263;139125;-77
2024/02/09 21:00:43;;;;;;;36.60;15.60;;;;;;;3.52;90.97;98431.83;681456;1266;138780;-80
2024/02/09 21:15:49;;;;;;;41.40;16.20;;;;;;;3.48;91.45;98430.05;680465;1261;142900;-81
2024/02/09 21:30:53;;;;;;;36.40;17.20;;;;;;;3.50;91.80;98429.23;680307;1264;139074;-79
2024/02/09 21:45:58;;;;;;;33.80;15.60;;;;;;;3.44;92.91;98432.96;677842;1261;138879;-80
2024/02/09 22:01:04;;;;;;;54.00;21.80;;;;;;;3.46;93.18;98431.77;678320;1264;138930;-80
2024/02/09 22:16:11;;;;;;;58.30;23.10;;;;;;;3.56;92.71;98429.91;678505;1265;140591;-80
2024/02/09 22:31:17;;;;;;;52.50;22.30;;;;;;;3.51;93.15;98424.44;679425;1270;139558;-79
2024/02/09 22:46:21;;;;;;;31.80;15.70;;;;;;;3.51;94.03;98433.73;680291;1264;140081;-80
2024/02/09 23:01:26;;;;;;;22.20;12.50;;;;;;;3.53;94.27;98434.14;679266;1261;139484;-80
2024/02/09 23:16:30;;;;;;;44.50;18.90;;;;;;;3.44;95.19;98431.98;678851;1262;139463;-80
2024/02/09 23:31:34;;;;;;;28.80;15.10;;;;;;;3.66;94.07;98432.83;673714;1263;139405;-80
2024/02/09 23:46:41;;;;;;;24.90;14.90;;;;;;;3.61;94.34;98441.16;676945;1266;139618;-81
